Tiempo atmosférico en la estación meteorológica de San José del Valle, Cádiz (105 m.)



Fecha
DESCASC
Temp. máxima en grados centígrados (hora)
DESCASC
Temp. mínima en grados centígrados (hora)
DESCASC
Temp. media en grados centígrados
DESCASC
Racha de viento máxima en m/sg (hora)
DESCASC
Velocidad máxima media en intervalos de 10 minutos(hora)
DESCASC
Precipitaciones diarias en mm
DESCASC
Precipitaciones de 00:00 a 06:00 en mm
DESCASC
Precipitaciones de 06:00 a 12:00 en mm
DESCASC
Precipitaciones de 12:00 a 18:00 en mm
DESCASC
Precipitaciones de 18:00 a 24:00 en mm
DESCASC
18-08-2019 34 (17:00) 20.7 (07:50) 27.4 9.44 (14:20) 5.56 (12:10) 0 0 0 0 0
17-08-2019 40.1 (17:00) 20.9 (07:30) 30.5 7.78 (17:10) 3.89 (16:30) 0 0 0 0 0
16-08-2019 38.7 (15:30) 22.2 (05:30) 30.5 8.61 (16:00) 3.89 (16:00) 0 0 0 0 0
15-08-2019 38.4 (16:40) 21.4 (00:00) 29.9 7.5 (19:30) 3.61 (19:30) 0 0 0 0 0
14-08-2019 36.7 (17:50) 23.1 (00:00) 29.9 9.72 (10:20) 5.83 (10:20) 0 0 0 0 0
13-08-2019 36.1 (17:40) 17.4 (00:00) 26.7 10.28 (18:20) 3.61 (18:20) 0 0 0 0 0
12-08-2019 33.9 (16:30) 19 (00:00) 26.5 8.61 (12:30) 4.17 (12:00) 0 0 0 0 0
11-08-2019 32.8 (17:10) 19.1 (00:00) 25.9 7.5 (17:20) 3.61 (07:20) 0 0 0 0 0
10-08-2019 35.2 (16:20) 20.5 (00:00) 27.9 8.33 (17:00) 4.17 (19:10) 0 0 0 0 0
09-08-2019 33.1 (15:20) 19.6 (00:00) 26.3 8.61 (16:50) 3.89 (17:20) 0 0 0 0 0
08-08-2019 36.9 (16:30) 19.4 (00:00) 28.2 7.22 (17:40) 3.33 (20:10) 0 0 0 0 0
07-08-2019 34.6 (16:30) 18.5 (00:00) 26.5 7.78 (17:40) 3.89 (18:00) 0 0 0 0 0
06-08-2019 37.2 (16:30) 17.7 (00:00) 27.5 8.61 (18:10) 4.44 (18:10) 0 0 0 0 0
05-08-2019 36.5 (16:10) 19.6 (00:00) 28.1 9.17 (17:00) 4.17 (17:40) 0 0 0 0 0
04-08-2019 33.9 (16:00) 19.8 (00:00) 26.9 7.5 (18:30) 3.89 (01:20) 0 0 0 0 0
03-08-2019 34.7 (14:30) 18.9 (00:00) 26.8 8.61 (16:50) 3.33 (16:50) 0 0 0 0 0
02-08-2019 36 (14:50) 19.3 (00:00) 27.6 9.72 (16:10) 4.72 (16:00) 0 0 0 0 0
01-08-2019 34.5 (15:30) 22.1 (00:00) 28.3 7.5 (18:40) 3.61 (00:40) 0 0 0 0 0
31-07-2019 33.3 (16:40) 22.3 (00:00) 27.8 11.67 (10:20) 8.06 (11:10) 0 0 0 0 0
30-07-2019 36.2 (17:30) 18.6 (00:00) 27.4 7.78 (15:20) 3.61 (17:40) 0 0 0 0 0
29-07-2019 33.2 (16:50) 18.4 (00:00) 25.8 9.44 (18:00) 4.17 (17:20) 0 0 0 0 0
28-07-2019 29 (15:00) 18.1 (00:00) 23.6 7.22 (18:20) 3.33 (18:20) 0 0 0 0 0
27-07-2019 27.3 (14:10) 17.5 (00:00) 22.4 10.83 (17:10) 5 (17:10) 0 0 0 0 0
26-07-2019 29.9 (16:00) 20.3 (00:00) 25.1 10.56 (17:20) 4.17 (19:10) 0 0 0 0 0
25-07-2019 33.4 (14:20) 21 (00:00) 27.2 9.44 (14:40) 3.89 (20:10) 0 0 0 0 0
24-07-2019 37.3 (16:20) 21.9 (00:00) 29.6 6.67 (20:10) 3.61 (21:50) 0 0 0 0 0

Gráficas

Temp. máximas Temp. mínimas Temp. medias Precipitaciones Rachas de viento máximas Velocidades máximas media en intervalos de 10 minutos

Datos horarios

Fecha y hora oficial Temperatura (ºC) Velocidad del viento (km/h) Dirección del viento Racha (km/h) Dirección de racha Precipitación (mm) Presión (hPa) Tendencia (hPa) Humedad (%)
2019-08-22 23:00:00 26.6 10 Este 35 Sudeste 0 -- -- 50
2019-08-22 22:00:00 26.6 9 Este 29 Este 0 -- -- 51
2019-08-22 21:00:00 27.2 17 Este 48 Este 0 -- -- 51
2019-08-22 20:00:00 28.4 21 Este 40 Este 0 -- -- 48
2019-08-22 19:00:00 29.9 25 Este 45 Este 0 -- -- 40
2019-08-22 18:00:00 31.4 28 Sudeste 46 Este 0 -- -- 37
2019-08-22 17:00:00 32 28 Sudeste 44 Sudeste 0 -- -- 38
2019-08-22 16:00:00 32.8 29 Sudeste 43 Sudeste 0 -- -- 37
2019-08-22 15:00:00 32.5 25 Sudeste 39 Sudeste 0 -- -- 38
2019-08-22 14:00:00 32.1 22 Sudeste 37 Este 0 -- -- 38
2019-08-22 13:00:00 31.8 20 Sudeste 36 Sudeste 0 -- -- 39
2019-08-22 12:00:00 29.7 22 Sudeste 32 Sudeste 0 -- -- 43
2019-08-22 11:00:00 28.3 9 Este 20 Sudeste 0 -- -- 44
2019-08-22 10:00:00 27.3 8 Este 23 Este 0 -- -- 45
2019-08-22 09:00:00 25.7 6 Este 25 Sudeste 0 -- -- 50
2019-08-22 08:00:00 25.2 10 Este 22 Nordeste 0 -- -- 51
2019-08-22 07:00:00 25.4 10 Este 37 Este 0 -- -- 52
2019-08-22 06:00:00 25.2 12 Este 30 Este 0 -- -- 59
2019-08-22 05:00:00 25.3 12 Este 27 Este 0 -- -- 60
2019-08-22 04:00:00 25.5 8 Este 27 Sudeste 0 -- -- 59
2019-08-22 03:00:00 25.6 9 Este 33 Este 0 -- -- 56
2019-08-22 02:00:00 25.8 16 Este 33 Sudeste 0 -- -- 56
2019-08-22 01:00:00 26 17 Este 25 Este 0 -- -- 58
2019-08-22 00:00:00 26.2 12 Sudeste 21 Este 0 -- -- 57
2019-08-21 23:00:00 26.5 4 Este 19 Este 0 -- -- 57
2019-08-21 22:00:00 27.3 10 Sudeste 26 Este 0 -- -- 55
2019-08-21 21:00:00 28.4 17 Sudeste 27 Sudeste 0 -- -- 51
2019-08-21 20:00:00 29.1 9 Este 22 Este 0 -- -- 51
2019-08-21 19:00:00 30.8 5 Este 22 Este 0 -- -- 46
2019-08-21 18:00:00 31.6 5 Este 21 Sudeste 0 -- -- 45
2019-08-21 17:00:00 32.7 6 Este 24 Sudeste 0 -- -- 40
2019-08-21 16:00:00 33.5 11 Este 32 Sudeste 0 -- -- 37
2019-08-21 15:00:00 32.6 20 Sudeste 36 Sudeste 0 -- -- 41
2019-08-21 14:00:00 30.4 19 Este 36 Este 0 -- -- 49
2019-08-21 13:00:00 30.3 26 Este 40 Este 0 -- -- 47
2019-08-21 12:00:00 29.9 23 Este 36 Sudeste 0 -- -- 50
2019-08-21 11:00:00 28.7 13 Este 36 Este 0 -- -- 54
2019-08-21 10:00:00 27.5 20 Este 35 Este 0 -- -- 60
2019-08-21 09:00:00 26.2 17 Este 28 Este 0 -- -- 66
2019-08-21 08:00:00 25.7 16 Este 27 Sudeste 0 -- -- 66
2019-08-21 07:00:00 24.6 10 Sudeste 22 Sudeste 0 -- -- 64
2019-08-21 06:00:00 25.5 5 Este 17 Este 0 -- -- 67
2019-08-21 05:00:00 25.3 9 Este 26 Este 0 -- -- 67
2019-08-21 04:00:00 22.4 3 Norte 9 Nordeste 0 -- -- 52
2019-08-21 03:00:00 21.8 4 Norte 15 Noroeste 0 -- -- 43
2019-08-21 02:00:00 21.9 3 Noroeste 11 Oeste 0 -- -- 47
2019-08-21 01:00:00 22.2 0 Calma 5 Sudeste 0 -- -- 47
2019-08-21 00:00:00 22.3 0 Calma 5 Oeste 0 -- -- 49
2019-08-20 23:00:00 23.3 0 Calma 17 Oeste 0 -- -- 43
2019-08-20 22:00:00 24.5 6 Oeste 14 Sudoeste 0 -- -- 41
2019-08-20 21:00:00 26.9 6 Sudoeste 16 Sudoeste 0 -- -- 34
2019-08-20 20:00:00 29.5 9 Sudoeste 19 Sudoeste 0 -- -- 17
2019-08-20 19:00:00 32.1 7 Sudoeste 19 Sudoeste 0 -- -- 14
2019-08-20 18:00:00 32.5 9 Sudoeste 21 Sudoeste 0 -- -- 13
2019-08-20 17:00:00 32.5 9 Sudoeste 20 Sudoeste 0 -- -- 18
2019-08-20 16:00:00 32.4 7 Sudoeste 25 Sudoeste 0 -- -- 26
2019-08-20 15:00:00 32.2 6 Oeste 26 Sudoeste 0 -- -- 31
2019-08-20 14:00:00 31.6 7 Sudoeste 17 Sudoeste 0 -- -- 29
2019-08-20 13:00:00 30.1 7 Sur 19 Sur 0 -- -- 34
2019-08-20 12:00:00 28.3 8 Sudeste 18 Sur 0 -- -- 42
2019-08-20 11:00:00 25 7 Sur 13 Sur 0 -- -- 55
2019-08-20 10:00:00 22.5 7 Sudeste 18 Sudeste 0 -- -- 66
2019-08-20 09:00:00 20.2 9 Sudeste 16 Sudeste 0 -- -- 82
2019-08-20 08:00:00 18.7 0 Calma 5 Sudeste 0 -- -- 73
2019-08-20 07:00:00 18.9 0 Calma 12 Sudeste 0 -- -- 69
2019-08-20 06:00:00 19.3 2 Sudoeste 6 Sur 0 -- -- 62
2019-08-20 05:00:00 19.7 0 Calma 4 Sudeste 0 -- -- 60
2019-08-20 04:00:00 20.6 0 Calma 8 Sur 0 -- -- 55
2019-08-20 03:00:00 21.3 3 Sudoeste 9 Oeste 0 -- -- 44
2019-08-20 02:00:00 21.2 0 Calma 4 Norte 0 -- -- 53
2019-08-20 01:00:00 21.1 0 Calma 6 Sur 0 -- -- 38
2019-08-20 00:00:00 21.4 2 Sudoeste 11 Oeste 0 -- -- 50
2019-08-19 23:00:00 22.3 7 Sudoeste 15 Sudoeste 0 -- -- 60
2019-08-19 22:00:00 23.5 7 Sudoeste 22 Oeste 0 -- -- 61
2019-08-19 21:00:00 26.2 10 Sudoeste 21 Sudoeste 0 -- -- 45
2019-08-19 20:00:00 28.9 12 Sudoeste 27 Sudoeste 0 -- -- 30
2019-08-19 19:00:00 31.6 11 Sudoeste 31 Sudoeste 0 -- -- 26
2019-08-19 18:00:00 32.2 13 Sudoeste 27 Sudoeste 0 -- -- 29
2019-08-19 17:00:00 32.6 14 Sudoeste 27 Sudoeste 0 -- -- 35
2019-08-19 16:00:00 32.9 6 Oeste 33 Sudoeste 0 -- -- 34
2019-08-19 15:00:00 33.5 8 Sur 26 Sudoeste 0 -- -- 34
2019-08-19 14:00:00 31.8 10 Sudoeste 25 Sudoeste 0 -- -- 39
2019-08-19 13:00:00 31.2 10 Sudoeste 23 Sudeste 0 -- -- 47
2019-08-19 12:00:00 29.2 7 Sudeste 17 Sudeste 0 -- -- 59
2019-08-19 11:00:00 26.3 6 Sudeste 17 Sur 0 -- -- 67
2019-08-19 10:00:00 23.3 5 Sudeste 12 Sur 0 -- -- 79
2019-08-19 09:00:00 21.3 5 Sudeste 10 Sudeste 0 -- -- 86
2019-08-19 08:00:00 19.3 3 Sur 6 Sur 0 -- -- 89
2019-08-19 07:00:00 19.3 2 Sur 6 Sudoeste 0 -- -- 79
2019-08-19 06:00:00 19.9 0 Calma 3 Noroeste 0 -- -- 69
2019-08-19 05:00:00 20.4 0 Calma 3 Noroeste 0 -- -- 67
2019-08-19 04:00:00 20.8 0 Calma 4 Este 0 -- -- 61
2019-08-19 03:00:00 21.2 0 Calma 4 Noroeste 0 -- -- 60
2019-08-19 02:00:00 21.5 0 Calma 4 Nordeste 0 -- -- 61
2019-08-19 01:00:00 21.9 0 Calma 5 Nordeste 0 -- -- 64
2019-08-19 00:00:00 22 0 Calma 6 Sudoeste 0 -- -- 58
2019-08-18 23:00:00 23.1 3 Oeste 10 Sudoeste 0 -- -- 59
2019-08-18 22:00:00 24.5 4 Sudoeste 12 Oeste 0 -- -- 57
2019-08-18 21:00:00 27.2 4 Sudoeste 17 Sudoeste 0 -- -- 45
2019-08-18 20:00:00 29.4 9 Sudoeste 22 Sudoeste 0 -- -- 32
2019-08-18 19:00:00 31.8 8 Sudoeste 23 Sudoeste 0 -- -- 28
2019-08-18 18:00:00 33 10 Sudoeste 25 Sudoeste 0 -- -- 26
2019-08-18 17:00:00 34 10 Sudoeste 27 Sudoeste 0 -- -- 24
2019-08-18 16:00:00 33.8 12 Sur 26 Sur 0 -- -- 28
2019-08-18 15:00:00 33.1 12 Sudoeste 34 Sur 0 -- -- 31
2019-08-18 14:00:00 31.3 16 Sur 33 Sur 0 -- -- 37
2019-08-18 13:00:00 29.2 17 Sur 30 Sur 0 -- -- 44
2019-08-18 12:00:00 27.7 15 Sur 28 Sur 0 -- -- 50
2019-08-18 11:00:00 27.9 12 Sur 23 Sur 0 -- -- 47
2019-08-18 10:00:00 26.1 9 Sur 20 Sudeste 0 -- -- 52
2019-08-18 09:00:00 22.9 5 Sudeste 21 Sudeste 0 -- -- 54
2019-08-18 08:00:00 20.7 0 Calma 8 Sur 0 -- -- 58
2019-08-18 07:00:00 21.1 2 Norte 4 Norte 0 -- -- 58
2019-08-18 06:00:00 21.4 0 Calma 5 Norte 0 -- -- 52
2019-08-18 05:00:00 21.9 0 Calma 4 Este 0 -- -- 52
2019-08-18 04:00:00 22.5 0 Calma 5 Sudeste 0 -- -- 52
2019-08-18 03:00:00 23.1 0 Calma 4 Nordeste 0 -- -- 52
2019-08-18 02:00:00 23.8 0 Calma 5 Norte 0 -- -- 55
2019-08-18 01:00:00 24.7 0 Calma 4 Norte 0 -- -- 48
2019-08-18 00:00:00 26.1 0 Calma 14 Oeste 0 -- -- 41
2019-08-17 23:00:00 27.8 8 Oeste 15 Oeste 0 -- -- 33
2019-08-17 22:00:00 29 6 Oeste 13 Oeste 0 -- -- 30
2019-08-17 21:00:00 31.2 6 Sudoeste 22 Sudoeste 0 -- -- 27
2019-08-17 20:00:00 33.2 12 Sudoeste 24 Sudoeste 0 -- -- 27
2019-08-17 19:00:00 36.7 9 Oeste 26 Sudoeste 0 -- -- 21
2019-08-17 18:00:00 39.2 12 Sudoeste 28 Sudoeste 0 -- -- 12
2019-08-17 17:00:00 40.1 10 Sur 26 Sur 0 -- -- 13
2019-08-17 16:00:00 39.4 6 Noroeste 18 Noroeste 0 -- -- 16
2019-08-17 15:00:00 38.3 7 Norte 16 Noroeste 0 -- -- 18
2019-08-17 14:00:00 37 6 Norte 14 Noroeste 0 -- -- 19
2019-08-17 13:00:00 35 7 Noroeste 15 Noroeste 0 -- -- 23
2019-08-17 12:00:00 32.7 7 Noroeste 12 Noroeste 0 -- -- 28
2019-08-17 11:00:00 29.7 4 Noroeste 11 Noroeste 0 -- -- 35
2019-08-17 10:00:00 25.7 4 Sur 6 Sur 0 -- -- 44
2019-08-17 09:00:00 22.7 3 Sur 7 Sudeste 0 -- -- 53
2019-08-17 08:00:00 21 2 Sudeste 6 Sudeste 0 -- -- 58
2019-08-17 07:00:00 21.4 2 Sur 5 Sudoeste 0 -- -- 58
2019-08-17 06:00:00 21.6 0 Calma 4 Noroeste 0 -- -- 62
2019-08-17 05:00:00 22 0 Calma 3 Nordeste 0 -- -- 57
2019-08-17 04:00:00 22.5 0 Calma 2 Este 0 -- -- 60
2019-08-17 03:00:00 23.3 0 Calma 3 Norte 0 -- -- 56
2019-08-17 02:00:00 23.9 0 Calma 4 Nordeste 0 -- -- 48
2019-08-17 01:00:00 25.6 0 Calma 9 Oeste 0 -- -- 37
2019-08-17 00:00:00 26.8 4 Oeste 10 Sudoeste 0 -- -- 34
2019-08-16 23:00:00 27.8 4 Oeste 10 Sudoeste 0 -- -- 32
2019-08-16 22:00:00 29.1 4 Oeste 11 Oeste 0 -- -- 34
2019-08-16 21:00:00 31.2 5 Oeste 16 Sur 0 -- -- 30
2019-08-16 20:00:00 33.7 7 Sudoeste 22 Sudoeste 0 -- -- 26
2019-08-16 19:00:00 36.6 12 Sudoeste 28 Sudoeste 0 -- -- 17
2019-08-16 18:00:00 37.2 12 Sudoeste 27 Sudoeste 0 -- -- 20
2019-08-16 17:00:00 38.5 9 Sur 27 Oeste 0 -- -- 19
2019-08-16 16:00:00 38.3 14 Sudoeste 31 Sudoeste 0 -- -- 15
2019-08-16 15:00:00 38 5 Este 18 Noroeste 0 -- -- 17
2019-08-16 14:00:00 36.1 9 Noroeste 17 Noroeste 0 -- -- 21
2019-08-16 13:00:00 34.1 6 Noroeste 14 Noroeste 0 -- -- 26
2019-08-16 12:00:00 31.9 6 Noroeste 14 Noroeste 0 -- -- 31
2019-08-16 11:00:00 28.7 4 Sudeste 7 Este 0 -- -- 41
2019-08-16 10:00:00 26.3 4 Norte 14 Oeste 0 -- -- 44
2019-08-16 09:00:00 23.4 5 Noroeste 9 Noroeste 0 -- -- 50
2019-08-16 08:00:00 23.1 3 Noroeste 7 Norte 0 -- -- 50
2019-08-16 07:00:00 22.4 0 Calma 3 Nordeste 0 -- -- 51
2019-08-16 06:00:00 22.2 0 Calma 5 Sur 0 -- -- 54
2019-08-16 05:00:00 22.3 0 Calma 5 Nordeste 0 -- -- 63
2019-08-16 04:00:00 23.1 0 Calma 6 Oeste 0 -- -- 59
2019-08-16 03:00:00 24.3 5 Noroeste 14 Noroeste 0 -- -- 53
2019-08-16 02:00:00 24.2 9 Oeste 14 Oeste 0 -- -- 50
2019-08-16 01:00:00 24.3 2 Norte 5 Sudeste 0 -- -- 59
2019-08-16 00:00:00 25.3 0 Calma 13 Sudoeste 0 -- -- 54
2019-08-15 23:00:00 26.2 9 Oeste 18 Oeste 0 -- -- 50
2019-08-15 22:00:00 28 9 Noroeste 27 Sudoeste 0 -- -- 43
2019-08-15 21:00:00 31.8 10 Sudoeste 23 Sudoeste 0 -- -- 24
2019-08-15 20:00:00 33.9 9 Sudoeste 27 Sudoeste 0 -- -- 28
2019-08-15 19:00:00 35.8 13 Sudoeste 26 Sudoeste 0 -- -- 28
2019-08-15 18:00:00 37.5 13 Sudoeste 26 Noroeste 0 -- -- 25
2019-08-15 17:00:00 38.4 5 Sudoeste 20 Oeste 0 -- -- 19
2019-08-15 16:00:00 37.8 5 Norte 18 Norte 0 -- -- 21
2019-08-15 15:00:00 36.9 6 Norte 18 Sudoeste 0 -- -- 25
2019-08-15 14:00:00 35.7 7 Noroeste 17 Norte 0 -- -- 27
2019-08-15 13:00:00 34 6 Sudeste 15 Oeste 0 -- -- 31
2019-08-15 12:00:00 31.1 8 Noroeste 14 Noroeste 0 -- -- 42
2019-08-15 11:00:00 28.7 3 Sudeste 6 Sudeste 0 -- -- 46
2019-08-15 10:00:00 25.8 4 Sur 10 Sudeste 0 -- -- 59
2019-08-15 09:00:00 22.9 5 Sur 8 Sur 0 -- -- 73
2019-08-15 08:00:00 21.6 0 Calma 9 Este 0 -- -- 80
2019-08-15 07:00:00 21.7 0 Calma 4 Nordeste 0 -- -- 87
2019-08-15 06:00:00 21.9 0 Calma 5 Este 0 -- -- 86
2019-08-15 05:00:00 22.8 0 Calma 10 Noroeste 0 -- -- 78
2019-08-15 04:00:00 23.3 3 Noroeste 13 Noroeste 0 -- -- 77
2019-08-15 03:00:00 22.8 2 Noroeste 4 Noroeste 0 -- -- 83
2019-08-15 02:00:00 22.6 0 Calma 3 Sudoeste 0 -- -- 78
2019-08-15 01:00:00 23.2 0 Calma 5 Sur 0 -- -- 75
2019-08-15 00:00:00 24.1 3 Sur 14 Oeste 0 -- -- 72
2019-08-14 23:00:00 25.7 5 Noroeste 17 Oeste 0 -- -- 60
2019-08-14 22:00:00 26.9 6 Sudoeste 19 Sudoeste 0 -- -- 56
2019-08-14 21:00:00 28.9 10 Sudoeste 21 Oeste 0 -- -- 51
2019-08-14 20:00:00 31.9 11 Sudoeste 26 Sudoeste 0 -- -- 42
2019-08-14 19:00:00 34.1 13 Sudoeste 30 Sudoeste 0 -- -- 36
2019-08-14 18:00:00 36.3 9 Sudoeste 29 Oeste 0 -- -- 31
2019-08-14 17:00:00 36.3 5 Este 10 Este 0 -- -- 29
2019-08-14 16:00:00 35.5 6 Sudeste 12 Este 0 -- -- 32
2019-08-14 15:00:00 35.1 4 Este 12 Sudeste 0 -- -- 31
2019-08-14 14:00:00 33.5 3 Este 10 Este 0 -- -- 36
2019-08-14 13:00:00 31.9 3 Este 15 Sudeste 0 -- -- 46
2019-08-14 12:00:00 30.3 10 Este 26 Este 0 -- -- 49
2019-08-14 11:00:00 28.2 12 Este 35 Este 0 -- -- 57
2019-08-14 10:00:00 27.8 15 Este 27 Este 0 -- -- 57
2019-08-14 09:00:00 26.1 9 Este 26 Sudeste 0 -- -- 66
2019-08-14 08:00:00 25.4 12 Este 27 Este 0 -- -- 66
2019-08-14 07:00:00 24.9 5 Este 23 Este 0 -- -- 72
2019-08-14 06:00:00 24.4 6 Nordeste 18 Nordeste 0 -- -- 76
2019-08-14 05:00:00 24.5 8 Este 19 Nordeste 0 -- -- 73
2019-08-14 04:00:00 23.6 3 Norte 9 Nordeste 0 -- -- 68
2019-08-14 03:00:00 23.1 0 Calma 3 Sur 0 -- -- 75
2019-08-14 02:00:00 24 0 Calma 6 Nordeste 0 -- -- 67
2019-08-14 01:00:00 24.6 3 Norte 9 Noroeste 0 -- -- 62
2019-08-14 00:00:00 24.8 0 Calma 10 Oeste 0 -- -- 53
2019-08-13 23:00:00 25.8 8 Oeste 16 Oeste 0 -- -- 43
2019-08-13 22:00:00 27 7 Noroeste 15 Oeste 0 -- -- 37
2019-08-13 21:00:00 29 7 Oeste 21 Sudoeste 0 -- -- 29
2019-08-13 20:00:00 30.8 12 Sudoeste 27 Sudoeste 0 -- -- 30
2019-08-13 19:00:00 33.3 12 Sudoeste 37 Sudoeste 0 -- -- 25
2019-08-13 18:00:00 35.4 10 Sudoeste 22 Sudoeste 0 -- -- 18
2019-08-13 17:00:00 35.9 5 Noroeste 16 Noroeste 0 -- -- 12
2019-08-13 16:00:00 35 5 Oeste 15 Noroeste 0 -- -- 14
2019-08-13 15:00:00 34.2 7 Noroeste 21 Norte 0 -- -- 13
2019-08-13 14:00:00 33.2 7 Noroeste 19 Norte 0 -- -- 18
2019-08-13 13:00:00 31.5 9 Noroeste 17 Noroeste 0 -- -- 22
2019-08-13 12:00:00 28.7 9 Noroeste 15 Noroeste 0 -- -- 27
2019-08-13 11:00:00 25.7 3 Sudeste 6 Este 0 -- -- 34
2019-08-13 10:00:00 22.3 4 Sudeste 6 Este 0 -- -- 36
2019-08-13 09:00:00 19 2 Este 5 Este 0 -- -- 49
2019-08-13 08:00:00 17.5 0 Calma 4 Sudeste 0 -- -- 57
2019-08-13 07:00:00 17.4 0 Calma 3 Este 0 -- -- 57
2019-08-13 06:00:00 18.4 0 Calma 4 Nordeste 0 -- -- 53
2019-08-13 05:00:00 19.1 0 Calma 3 Este 0 -- -- 52
2019-08-13 04:00:00 19.7 0 Calma 5 Sudeste 0 -- -- 50
2019-08-13 03:00:00 20.6 0 Calma 5 Nordeste 0 -- -- 45
2019-08-13 02:00:00 21 2 Nordeste 6 Nordeste 0 -- -- 44
2019-08-13 01:00:00 20.7 0 Calma 5 Nordeste 0 -- -- 44
2019-08-13 00:00:00 20.5 0 Calma 6 Sur 0 -- -- 46
2019-08-12 23:00:00 21.4 0 Calma 9 Noroeste 0 -- -- 39
2019-08-12 22:00:00 23 4 Sur 28 Noroeste 0 -- -- 35
2019-08-12 21:00:00 25.6 10 Noroeste 23 Oeste 0 -- -- 30
2019-08-12 20:00:00 30.5 9 Noroeste 26 Norte 0 -- -- 17
2019-08-12 19:00:00 33 9 Noroeste 26 Noroeste 0 -- -- 9
2019-08-12 18:00:00 33.2 10 Noroeste 27 Oeste 0 -- -- 10
2019-08-12 17:00:00 33.8 10 Noroeste 22 Norte 0 -- -- 7
2019-08-12 16:00:00 33.2 7 Noroeste 24 Norte 0 -- -- 8
2019-08-12 15:00:00 32.7 8 Noroeste 30 Norte 0 -- -- 11
2019-08-12 14:00:00 31.2 11 Noroeste 29 Noroeste 0 -- -- 16
2019-08-12 13:00:00 30.4 8 Noroeste 31 Norte 0 -- -- 20
2019-08-12 12:00:00 28 15 Norte 28 Norte 0 -- -- 22
2019-08-12 11:00:00 25.4 11 Noroeste 30 Norte 0 -- -- 29
2019-08-12 10:00:00 23.4 11 Norte 27 Nordeste 0 -- -- 32
2019-08-12 09:00:00 20.5 10 Noroeste 29 Noroeste 0 -- -- 37
2019-08-12 08:00:00 19.5 7 Norte 20 Nordeste 0 -- -- 38
2019-08-12 07:00:00 19.2 4 Este 18 Noroeste 0 -- -- 41
2019-08-12 06:00:00 19.6 4 Este 17 Noroeste 0 -- -- 40
2019-08-12 05:00:00 20.5 9 Norte 21 Norte 0 -- -- 36
2019-08-12 04:00:00 21.2 5 Norte 18 Noroeste 0 -- -- 34
2019-08-12 03:00:00 21.7 7 Norte 17 Norte 0 -- -- 34
2019-08-12 02:00:00 20.1 4 Noroeste 9 Norte 0 -- -- 44
2019-08-12 01:00:00 20.4 0 Calma 5 Sudoeste 0 -- -- 51
2019-08-12 00:00:00 21.6 3 Sudoeste 12 Sudoeste 0 -- -- 47
2019-08-11 23:00:00 22.5 5 Sudoeste 17 Sudoeste 0 -- -- 44
2019-08-11 22:00:00 24 8 Sudoeste 17 Sudoeste 0 -- -- 39
2019-08-11 21:00:00 25.5 9 Sudoeste 19 Sudoeste 0 -- -- 36
2019-08-11 20:00:00 27.1 9 Sudoeste 18 Sudoeste 0 -- -- 31
2019-08-11 19:00:00 29.2 7 Noroeste 22 Sur 0 -- -- 24
2019-08-11 18:00:00 31.6 11 Noroeste 27 Noroeste 0 -- -- 18
2019-08-11 17:00:00 32.7 8 Noroeste 24 Noroeste 0 -- -- 15
2019-08-11 16:00:00 31.6 10 Noroeste 26 Norte 0 -- -- 16
2019-08-11 15:00:00 30.5 10 Norte 22 Norte 0 -- -- 16
2019-08-11 14:00:00 30.6 8 Norte 17 Noroeste 0 -- -- 18
2019-08-11 13:00:00 29.5 7 Norte 15 Noroeste 0 -- -- 26
2019-08-11 12:00:00 27.2 5 Nordeste 16 Noroeste 0 -- -- 33
2019-08-11 11:00:00 24.5 8 Noroeste 19 Noroeste 0 -- -- 40
2019-08-11 10:00:00 21.8 5 Noroeste 11 Noroeste 0 -- -- 51
2019-08-11 09:00:00 19.6 6 Noroeste 15 Noroeste 0 -- -- 59
2019-08-11 08:00:00 19.5 2 Nordeste 26 Noroeste 0 -- -- 60
2019-08-11 07:00:00 19.1 6 Noroeste 21 Oeste 0 -- -- 65
2019-08-11 06:00:00 19.9 2 Noroeste 9 Norte 0 -- -- 63
2019-08-11 05:00:00 20.4 2 Noroeste 8 Norte 0 -- -- 66
2019-08-11 04:00:00 20.7 3 Norte 7 Noroeste 0 -- -- 69
2019-08-11 03:00:00 20.7 0 Calma 7 Sudoeste 0 -- -- 67
2019-08-11 02:00:00 21.3 3 Oeste 12 Sur 0 -- -- 62
2019-08-11 01:00:00 21.3 0 Calma 5 Sur 0 -- -- 54
2019-08-11 00:00:00 21.5 3 Sur 6 Sudoeste 0 -- -- 54
2019-08-10 23:00:00 22.9 4 Sur 14 Sudoeste 0 -- -- 52
2019-08-10 22:00:00 24.6 9 Sudoeste 22 Sudoeste 0 -- -- 46
2019-08-10 21:00:00 27.6 11 Sudoeste 24 Sudoeste 0 -- -- 39
2019-08-10 20:00:00 30.1 12 Sudoeste 26 Sudoeste 0 -- -- 36
2019-08-10 19:00:00 32.3 13 Sudoeste 29 Sudoeste 0 -- -- 34
2019-08-10 18:00:00 34 10 Sudoeste 27 Sudoeste 0 -- -- 32
2019-08-10 17:00:00 34.8 12 Sudoeste 30 Sudoeste 0 -- -- 33
2019-08-10 16:00:00 34.9 7 Norte 21 Noroeste 0 -- -- 31
2019-08-10 15:00:00 34.3 7 Norte 16 Norte 0 -- -- 33
2019-08-10 14:00:00 33.3 7 Norte 20 Noroeste 0 -- -- 36
2019-08-10 13:00:00 31.8 9 Noroeste 19 Noroeste 0 -- -- 42
2019-08-10 12:00:00 29.4 5 Noroeste 17 Noroeste 0 -- -- 60
2019-08-10 11:00:00 26.6 5 Sudeste 9 Sudeste 0 -- -- 72
2019-08-10 10:00:00 24.4 3 Este 10 Este 0 -- -- 78
2019-08-10 09:00:00 22 2 Nordeste 8 Este 0 -- -- 90
2019-08-10 08:00:00 20.6 2 Noroeste 6 Norte 0 -- -- 94
2019-08-10 07:00:00 20.5 3 Noroeste 14 Noroeste 0 -- -- 92
2019-08-10 06:00:00 21.1 0 Calma 5 Norte 0 -- -- 91
2019-08-10 05:00:00 21.2 0 Calma 5 Sudoeste 0 -- -- 90
2019-08-10 04:00:00 21.7 4 Sur 10 Sur 0 -- -- 89
2019-08-10 03:00:00 21.8 4 Sudoeste 9 Sudoeste 0 -- -- 88
2019-08-10 02:00:00 21.9 4 Sur 8 Sur 0 -- -- 90
2019-08-10 01:00:00 22 5 Sudoeste 11 Sudoeste 0 -- -- 88
2019-08-10 00:00:00 22.5 4 Sudoeste 12 Sudoeste 0 -- -- 86
2019-08-09 23:00:00 23.2 6 Sudoeste 17 Oeste 0 -- -- 81
2019-08-09 22:00:00 24.3 6 Sudoeste 15 Sudoeste 0 -- -- 74
2019-08-09 21:00:00 25.7 4 Sudoeste 24 Sudoeste 0 -- -- 67
2019-08-09 20:00:00 27.3 11 Sur 30 Sur 0 -- -- 58
2019-08-09 19:00:00 29 11 Sudoeste 26 Sudoeste 0 -- -- 51
2019-08-09 18:00:00 30.1 14 Sudoeste 28 Sudoeste 0 -- -- 43
2019-08-09 17:00:00 31.7 14 Sudoeste 31 Sudoeste 0 -- -- 36
2019-08-09 16:00:00 32.4 12 Sudoeste 27 Sudoeste 0 -- -- 38
2019-08-09 15:00:00 32.5 9 Sudoeste 21 Sur 0 -- -- 40
2019-08-09 14:00:00 31.5 5 Norte 19 Noroeste 0 -- -- 44
2019-08-09 13:00:00 29.7 7 Noroeste 20 Noroeste 0 -- -- 57
2019-08-09 12:00:00 27.5 9 Noroeste 17 Noroeste 0 -- -- 65
2019-08-09 11:00:00 25.8 5 Norte 10 Norte 0 -- -- 70
2019-08-09 10:00:00 23.1 3 Sudoeste 11 Sudoeste 0 -- -- 82
2019-08-09 09:00:00 21.3 6 Sur 10 Sudoeste 0 -- -- 86
2019-08-09 08:00:00 19.6 0 Calma 4 Este 0 -- -- 89
2019-08-09 07:00:00 19.8 0 Calma 4 Sur 0 -- -- 91
2019-08-09 06:00:00 20.4 0 Calma 13 Oeste 0 -- -- 89
2019-08-09 05:00:00 20.2 0 Calma 13 Sudoeste 0 -- -- 90
2019-08-09 04:00:00 20.6 4 Sudoeste 10 Oeste 0 -- -- 90
2019-08-09 03:00:00 20.7 2 Sudoeste 6 Norte 0 -- -- 83
2019-08-09 02:00:00 20.6 2 Sur 6 Oeste 0 -- -- 76
2019-08-09 01:00:00 21 3 Oeste 6 Sudoeste 0 -- -- 71
2019-08-09 00:00:00 22 3 Sudoeste 14 Sudoeste 0 -- -- 63
2019-08-08 23:00:00 23.7 7 Sudoeste 19 Sudoeste 0 -- -- 52
2019-08-08 22:00:00 26 7 Sudoeste 22 Sudoeste 0 -- -- 44
2019-08-08 21:00:00 28.7 10 Sudoeste 26 Sur 0 -- -- 34
2019-08-08 20:00:00 31.9 10 Sudoeste 24 Sudoeste 0 -- -- 28
2019-08-08 19:00:00 34.7 5 Sudeste 23 Sur 0 -- -- 22
2019-08-08 18:00:00 35.3 8 Sudoeste 26 Sudoeste 0 -- -- 24
2019-08-08 17:00:00 36.4 6 Sudoeste 24 Sudoeste 0 -- -- 25
2019-08-08 16:00:00 36.4 6 Oeste 16 Noroeste 0 -- -- 19
2019-08-08 15:00:00 35.1 8 Norte 20 Norte 0 -- -- 24
2019-08-08 14:00:00 33.6 5 Norte 16 Norte 0 -- -- 25
2019-08-08 13:00:00 31.3 8 Noroeste 17 Norte 0 -- -- 34
2019-08-08 12:00:00 29.3 5 Noroeste 15 Norte 0 -- -- 44
2019-08-08 11:00:00 26.9 4 Oeste 14 Noroeste 0 -- -- 51
2019-08-08 10:00:00 23.5 5 Sudeste 7 Sudeste 0 -- -- 63
2019-08-08 09:00:00 20.8 2 Este 5 Nordeste 0 -- -- 76
2019-08-08 08:00:00 19.4 0 Calma 3 Norte 0 -- -- 80
2019-08-08 07:00:00 19.7 0 Calma 4 Nordeste 0 -- -- 77
2019-08-08 06:00:00 20.1 0 Calma 4 Sudeste 0 -- -- 75
2019-08-08 05:00:00 20.8 0 Calma 4 Noroeste 0 -- -- 76
2019-08-08 04:00:00 21.2 0 Calma 4 Norte 0 -- -- 75
2019-08-08 03:00:00 22.1 0 Calma 7 Oeste 0 -- -- 66
2019-08-08 02:00:00 22.8 4 Oeste 11 Oeste 0 -- -- 60
2019-08-08 01:00:00 23.1 4 Oeste 11 Sudoeste 0 -- -- 62
2019-08-08 00:00:00 23.1 5 Sudoeste 10 Sudoeste 0 -- -- 62
2019-08-07 23:00:00 24.2 3 Oeste 12 Sudoeste 0 -- -- 55
2019-08-07 22:00:00 25.5 4 Noroeste 15 Oeste 0 -- -- 51
2019-08-07 21:00:00 27.4 8 Noroeste 19 Oeste 0 -- -- 44
2019-08-07 20:00:00 31 4 Norte 19 Noroeste 0 -- -- 31
2019-08-07 19:00:00 31.9 8 Noroeste 23 Noroeste 0 -- -- 28
2019-08-07 18:00:00 32.3 14 Noroeste 28 Noroeste 0 -- -- 29
2019-08-07 17:00:00 34 11 Noroeste 24 Noroeste 0 -- -- 26
2019-08-07 16:00:00 34 11 Noroeste 19 Noroeste 0 -- -- 29
2019-08-07 15:00:00 32.9 8 Norte 18 Norte 0 -- -- 31
2019-08-07 14:00:00 31.5 9 Noroeste 17 Sudoeste 0 -- -- 37
2019-08-07 13:00:00 30 6 Sudoeste 18 Sur 0 -- -- 43
2019-08-07 12:00:00 27.7 6 Sudoeste 15 Sur 0 -- -- 51
2019-08-07 11:00:00 25.8 7 Sur 15 Sur 0 -- -- 57
2019-08-07 10:00:00 23 5 Sudeste 9 Sudeste 0 -- -- 66
2019-08-07 09:00:00 20 3 Sudoeste 9 Sur 0 -- -- 75
2019-08-07 08:00:00 18.6 2 Noroeste 7 Sur 0 -- -- 76
2019-08-07 07:00:00 19 0 Calma 10 Oeste 0 -- -- 67
2019-08-07 06:00:00 19.9 0 Calma 5 Sudeste 0 -- -- 70
2019-08-07 05:00:00 20.4 0 Calma 4 Norte 0 -- -- 64
2019-08-07 04:00:00 20.5 0 Calma 4 Oeste 0 -- -- 62
2019-08-07 03:00:00 20.9 0 Calma 6 Nordeste 0 -- -- 60
2019-08-07 02:00:00 21.8 2 Noroeste 7 Noroeste 0 -- -- 58
2019-08-07 01:00:00 22 0 Calma 12 Sudoeste 0 -- -- 53
2019-08-07 00:00:00 23 8 Sudoeste 17 Sudoeste 0 -- -- 50
2019-08-06 23:00:00 23.5 9 Sudoeste 17 Sudoeste 0 -- -- 52
2019-08-06 22:00:00 25.5 6 Sudoeste 17 Sudoeste 0 -- -- 49
2019-08-06 21:00:00 28.6 8 Sudoeste 22 Sudoeste 0 -- -- 41
2019-08-06 20:00:00 32.6 8 Sudoeste 17 Sur 0 -- -- 25
2019-08-06 19:00:00 33.7 5 Nordeste 31 Sudoeste 0 -- -- 21
2019-08-06 18:00:00 34.1 14 Sudoeste 26 Sudoeste 0 -- -- 25
2019-08-06 17:00:00 36.9 8 Sudoeste 20 Sur 0 -- -- 14
2019-08-06 16:00:00 36.7 5 Sur 21 Noroeste 0 -- -- 10
2019-08-06 15:00:00 34.6 9 Noroeste 18 Noroeste 0 -- -- 20
2019-08-06 14:00:00 32.2 4 Nordeste 9 Norte 0 -- -- 23
2019-08-06 13:00:00 30.4 4 Noroeste 13 Norte 0 -- -- 26
2019-08-06 12:00:00 26.9 4 Norte 17 Noroeste 0 -- -- 40
2019-08-06 11:00:00 24 7 Noroeste 17 Oeste 0 -- -- 50
2019-08-06 10:00:00 22.5 3 Norte 9 Norte 0 -- -- 53
2019-08-06 09:00:00 19.4 2 Sudeste 5 Sudoeste 0 -- -- 66
2019-08-06 08:00:00 17.9 2 Sudoeste 7 Sudoeste 0 -- -- 72
2019-08-06 07:00:00 17.9 2 Norte 5 Norte 0 -- -- 71
2019-08-06 06:00:00 18.6 0 Calma 5 Este 0 -- -- 65
2019-08-06 05:00:00 19 0 Calma 4 Este 0 -- -- 64
2019-08-06 04:00:00 19.2 0 Calma 4 Este 0 -- -- 64
2019-08-06 03:00:00 19.9 0 Calma 11 Noroeste 0 -- -- 55
2019-08-06 02:00:00 21.5 7 Noroeste 13 Noroeste 0 -- -- 51
2019-08-06 01:00:00 22 0 Calma 4 Sudeste 0 -- -- 49
2019-08-06 00:00:00 23.4 3 Oeste 9 Sudoeste 0 -- -- 36
2019-08-05 23:00:00 23.9 5 Oeste 13 Sudoeste 0 -- -- 40
2019-08-05 22:00:00 25.6 5 Sudoeste 17 Sudoeste 0 -- -- 41
2019-08-05 21:00:00 27.9 8 Sur 24 Sudoeste 0 -- -- 34
2019-08-05 20:00:00 30.9 11 Sudoeste 25 Sudoeste 0 -- -- 28
2019-08-05 19:00:00 33.8 6 Noroeste 25 Sudoeste 0 -- -- 22
2019-08-05 18:00:00 34.8 12 Sur 30 Sudoeste 0 -- -- 22
2019-08-05 17:00:00 35.4 12 Sudoeste 33 Sudoeste 0 -- -- 26
2019-08-05 16:00:00 36.2 6 Sudeste 19 Noroeste 0 -- -- 21
2019-08-05 15:00:00 34.8 9 Noroeste 18 Noroeste -- -- -- 25
2019-08-05 14:00:00 32.7 7 Norte 20 Noroeste 0 -- -- 34
2019-08-05 13:00:00 30.8 7 Norte 16 Norte 0 -- -- 42
2019-08-05 12:00:00 28.3 7 Noroeste 14 Norte 0 -- -- 46
2019-08-05 11:00:00 25.8 6 Norte 10 Norte 0 -- -- 53
2019-08-05 10:00:00 23.6 2 Este 5 Este 0 -- -- 62
2019-08-05 09:00:00 21 0 Calma 7 Sur 0 -- -- 70
2019-08-05 08:00:00 19.8 0 Calma 6 Noroeste 0 -- -- 73
2019-08-05 07:00:00 20 2 Noroeste 4 Norte 0 -- -- 78
2019-08-05 06:00:00 20.4 0 Calma 4 Norte 0 -- -- 70
2019-08-05 05:00:00 21.1 2 Norte 5 Norte 0 -- -- 75
2019-08-05 04:00:00 21.4 0 Calma 4 Este 0 -- -- 70
2019-08-05 03:00:00 21.6 0 Calma 5 Nordeste 0 -- -- 68
2019-08-05 02:00:00 22 0 Calma 5 Nordeste 0 -- -- 69
2019-08-05 01:00:00 22.2 0 Calma 4 Norte 0 -- -- 70
2019-08-05 00:00:00 23.1 0 Calma 6 Sudoeste 0 -- -- 60
2019-08-04 23:00:00 23.5 2 Oeste 9 Oeste 0 -- -- 57
2019-08-04 22:00:00 25.3 3 Oeste 13 Sudoeste 0 -- -- 53
2019-08-04 21:00:00 27.2 9 Sudoeste 23 Sudoeste 0 -- -- 46
2019-08-04 20:00:00 30 13 Sudoeste 22 Sudoeste 0 -- -- 41
2019-08-04 19:00:00 33 10 Sudoeste 27 Sudoeste 0 -- -- 32
2019-08-04 18:00:00 33.3 11 Sudoeste 26 Sudoeste 0 -- -- 34
2019-08-04 17:00:00 33.3 12 Sudoeste 25 Sudoeste 0 -- -- 36
2019-08-04 16:00:00 33.9 7 Oeste 21 Norte 0 -- -- 31
2019-08-04 15:00:00 33.1 7 Norte 19 Noroeste 0 -- -- 30
2019-08-04 14:00:00 31.9 6 Norte 17 Noroeste 0 -- -- 30
2019-08-04 13:00:00 29.3 7 Noroeste 15 Noroeste 0 -- -- 42
2019-08-04 12:00:00 27.6 5 Sudoeste 15 Oeste 0 -- -- 44
2019-08-04 11:00:00 25.6 5 Sudoeste 15 Sudoeste 0 -- -- 53
2019-08-04 10:00:00 22.8 8 Oeste 17 Oeste 0 -- -- 71
2019-08-04 09:00:00 20.2 6 Oeste 16 Oeste 0 -- -- 80
2019-08-04 08:00:00 20 0 Calma 3 Nordeste 0 -- -- 78
2019-08-04 07:00:00 20.3 0 Calma 6 Noroeste 0 -- -- 73
2019-08-04 06:00:00 20.6 2 Sudoeste 6 Norte 0 -- -- 72
2019-08-04 05:00:00 21.7 2 Este 11 Este 0 -- -- 71
2019-08-04 04:00:00 21.6 3 Sur 11 Sur 0 -- -- 64
2019-08-04 03:00:00 20.9 3 Sudoeste 13 Sudoeste 0 -- -- 75
2019-08-04 02:00:00 21.6 6 Oeste 23 Oeste 0 -- -- 69
2019-08-04 01:00:00 22.5 6 Oeste 16 Oeste 0 -- -- 67
2019-08-04 00:00:00 23.8 4 Norte 15 Oeste 0 -- -- 58
2019-08-03 23:00:00 24.9 8 Oeste 15 Sudoeste 0 -- -- 53
2019-08-03 22:00:00 27.2 5 Sudoeste 14 Sudoeste 0 -- -- 34
2019-08-03 21:00:00 29 7 Sudoeste 17 Oeste 0 -- -- 23
2019-08-03 20:00:00 30.6 9 Sudoeste 23 Sudoeste 0 -- -- 20
2019-08-03 19:00:00 32.2 8 Sudoeste 21 Sudoeste 0 -- -- 23
2019-08-03 18:00:00 32.8 8 Noroeste 26 Sudoeste 0 -- -- 25
2019-08-03 17:00:00 31.9 9 Oeste 31 Noroeste 0 -- -- 32
2019-08-03 16:00:00 32 9 Noroeste 26 Oeste 0 -- -- 36
2019-08-03 15:00:00 34.2 8 Oeste 29 Sudoeste 0 -- -- 33
2019-08-03 14:00:00 34 12 Sur 24 Sur 0 -- -- 29
2019-08-03 13:00:00 32.2 10 Sur 23 Sudoeste 0 -- -- 34
2019-08-03 12:00:00 29.8 9 Sudoeste 23 Sudoeste 0 -- -- 42
2019-08-03 11:00:00 25.8 7 Noroeste 16 Oeste 0 -- -- 52
2019-08-03 10:00:00 23.9 4 Sudoeste 10 Sudoeste 0 -- -- 47
2019-08-03 09:00:00 20.8 0 Calma 4 Norte 0 -- -- 53
2019-08-03 08:00:00 19 0 Calma 4 Este 0 -- -- 59
2019-08-03 07:00:00 19 0 Calma 2 Oeste 0 -- -- 64
2019-08-03 06:00:00 19.5 0 Calma 5 Noroeste 0 -- -- 55
2019-08-03 05:00:00 20.3 0 Calma 4 Noroeste 0 -- -- 65
2019-08-03 04:00:00 20.6 0 Calma 5 Sur 0 -- -- 64
2019-08-03 03:00:00 21.3 2 Sudoeste 5 Norte 0 -- -- 50
2019-08-03 02:00:00 22.1 2 Norte 6 Noroeste 0 -- -- 55
2019-08-03 01:00:00 22.7 2 Oeste 5 Oeste 0 -- -- 52
2019-08-03 00:00:00 23.5 0 Calma 6 Sudoeste 0 -- -- 44
2019-08-02 23:00:00 25.1 3 Norte 8 Oeste 0 -- -- 44
2019-08-02 22:00:00 26.3 3 Oeste 13 Sudoeste 0 -- -- 37
2019-08-02 21:00:00 29.1 5 Sudoeste 21 Sudoeste 0 -- -- 25
2019-08-02 20:00:00 31.5 12 Sudoeste 24 Sudoeste 0 -- -- 19
2019-08-02 19:00:00 33.1 13 Sudoeste 27 Sur 0 -- -- 18
2019-08-02 18:00:00 33.5 13 Sudoeste 27 Sudoeste 0 -- -- 21
2019-08-02 17:00:00 33.9 13 Sudoeste 35 Sudoeste 0 -- -- 20
2019-08-02 16:00:00 34.3 17 Sudoeste 30 Sudoeste 0 -- -- 26
2019-08-02 15:00:00 35.9 7 Sudoeste 20 Sudoeste 0 -- -- 22
2019-08-02 14:00:00 34.1 6 Noroeste 17 Noroeste 0 -- -- 23
2019-08-02 13:00:00 31.6 9 Noroeste 18 Noroeste 0 -- -- 30
2019-08-02 12:00:00 29.4 6 Noroeste 16 Norte 0 -- -- 41
2019-08-02 11:00:00 27.1 6 Noroeste 10 Noroeste 0 -- -- 47
2019-08-02 10:00:00 24 3 Este 5 Este 0 -- -- 62
2019-08-02 09:00:00 20.8 2 Sudeste 7 Este 0 -- -- 75
2019-08-02 08:00:00 19.4 0 Calma 4 Norte 0 -- -- 81
2019-08-02 07:00:00 19.8 0 Calma 4 Este 0 -- -- 84
2019-08-02 06:00:00 20.5 0 Calma 4 Noroeste 0 -- -- 84
2019-08-02 05:00:00 20.8 0 Calma 2 Oeste 0 -- -- 80
2019-08-02 04:00:00 21.4 0 Calma 4 Nordeste 0 -- -- 78
2019-08-02 03:00:00 21.8 0 Calma 4 Nordeste 0 -- -- 79
2019-08-02 02:00:00 22.3 0 Calma 4 Norte 0 -- -- 76
2019-08-02 01:00:00 23.1 2 Noroeste 6 Oeste 0 -- -- 69
2019-08-02 00:00:00 23.6 3 Oeste 8 Oeste 0 -- -- 63
2019-08-01 23:00:00 24.9 0 Calma 11 Sur 0 -- -- 62
2019-08-01 22:00:00 26.5 4 Sur 23 Sudoeste 0 -- -- 56
2019-08-01 21:00:00 29.1 11 Sudoeste 24 Sudoeste 0 -- -- 42
2019-08-01 20:00:00 31.8 10 Sudoeste 20 Norte 0 -- -- 41
2019-08-01 19:00:00 32.9 9 Noroeste 27 Norte 0 -- -- 36
2019-08-01 18:00:00 33.7 7 Sur 22 Sudoeste 0 -- -- 38
2019-08-01 17:00:00 34.2 6 Norte 17 Noroeste 0 -- -- 39
2019-08-01 16:00:00 33.7 4 Noroeste 15 Sudeste 0 -- -- 35
2019-08-01 15:00:00 33.8 6 Norte 15 Sudeste 0 -- -- 37
2019-08-01 14:00:00 33.3 6 Este 10 Este 0 -- -- 38
2019-08-01 13:00:00 32 5 Este 9 Este 0 -- -- 43
2019-08-01 12:00:00 31.1 6 Este 9 Este 0 -- -- 45
2019-08-01 11:00:00 28.5 5 Noroeste 16 Noroeste 0 -- -- 53
2019-08-01 10:00:00 25.8 8 Noroeste 14 Oeste 0 -- -- 66
2019-08-01 09:00:00 23.9 0 Calma 6 Sudeste 0 -- -- 76
2019-08-01 08:00:00 22.5 2 Norte 9 Norte 0 -- -- 78
2019-08-01 07:00:00 22.3 0 Calma 10 Sur 0 -- -- 76
2019-08-01 06:00:00 22.2 4 Sur 8 Sur 0 -- -- 78
2019-08-01 05:00:00 22.7 0 Calma 6 Sur 0 -- -- 73
2019-08-01 04:00:00 23.9 0 Calma 11 Sudoeste 0 -- -- 65
2019-08-01 03:00:00 25.2 4 Sur 17 Este 0 -- -- 60
2019-08-01 02:00:00 25.6 4 Este 26 Sudeste 0 -- -- 64
2019-08-01 01:00:00 26.3 6 Sudeste 21 Sudeste 0 -- -- 53
2019-08-01 00:00:00 26.4 8 Este 24 Este 0 -- -- 55
2019-07-31 23:00:00 26.6 4 Este 24 Este 0 -- -- 57
2019-07-31 22:00:00 27.2 17 Sudeste 26 Sudeste 0 -- -- 57
2019-07-31 21:00:00 28.3 8 Sudeste 28 Este 0 -- -- 53
2019-07-31 20:00:00 29.6 6 Este 27 Este 0 -- -- 48
2019-07-31 19:00:00 30.8 13 Este 26 Este 0 -- -- 44
2019-07-31 18:00:00 32.4 18 Sudeste 31 Sudeste 0 -- -- 38
2019-07-31 17:00:00 33.1 17 Sudeste 36 Sudeste 0 -- -- 38
2019-07-31 16:00:00 32.9 19 Sudeste 42 Sudeste 0 -- -- 38
2019-07-31 15:00:00 32.5 21 Sudeste 38 Sudeste 0 -- -- 40
2019-07-31 14:00:00 32.6 18 Sudeste 36 Sudeste 0 -- -- 39
2019-07-31 13:00:00 30.6 22 Sudeste 38 Sudeste 0 -- -- 44
2019-07-31 12:00:00 29.8 22 Sudeste 42 Sudeste 0 -- -- 41
2019-07-31 11:00:00 28.1 28 Este 42 Sudeste 0 -- -- 46
2019-07-31 10:00:00 28 18 Este 32 Este 0 -- -- 41
2019-07-31 09:00:00 24.4 0 Calma 6 Nordeste 0 -- -- 48
2019-07-31 08:00:00 23.3 2 Noroeste 12 Norte 0 -- -- 53
2019-07-31 07:00:00 22.7 0 Calma 10 Norte 0 -- -- 57
2019-07-31 06:00:00 22.3 0 Calma 8 Oeste 0 -- -- 50
2019-07-31 05:00:00 23.4 4 Noroeste 11 Norte 0 -- -- 35
2019-07-31 04:00:00 23.4 2 Noroeste 6 Norte 0 -- -- 39
2019-07-31 03:00:00 23.3 0 Calma 6 Sudoeste 0 -- -- 47
2019-07-31 02:00:00 24.1 2 Sur 5 Sudoeste 0 -- -- 32
2019-07-31 01:00:00 24 0 Calma 4 Nordeste 0 -- -- 34
2019-07-31 00:00:00 25 0 Calma 10 Oeste 0 -- -- 30
2019-07-30 23:00:00 26.9 6 Oeste 11 Oeste 0 -- -- 24
2019-07-30 22:00:00 29.4 6 Noroeste 16 Noroeste 0 -- -- 17
2019-07-30 21:00:00 32 5 Noroeste 17 Noroeste 0 -- -- 18
2019-07-30 20:00:00 34.6 7 Noroeste 24 Norte 0 -- -- 14
2019-07-30 19:00:00 35.7 11 Noroeste 26 Noroeste 0 -- -- 14
2019-07-30 18:00:00 35.9 12 Noroeste 25 Norte 0 -- -- 16
2019-07-30 17:00:00 36.1 10 Noroeste 23 Noroeste 0 -- -- 15
2019-07-30 16:00:00 35.4 11 Noroeste 28 Norte 0 -- -- 16
2019-07-30 15:00:00 34.6 10 Noroeste 23 Noroeste 0 -- -- 17
2019-07-30 14:00:00 33.7 10 Noroeste 22 Noroeste 0 -- -- 18
2019-07-30 13:00:00 32.1 9 Noroeste 21 Norte 0 -- -- 20
2019-07-30 12:00:00 28.9 6 Sudeste 10 Sudeste 0 -- -- 34
2019-07-30 11:00:00 26.2 5 Sur 11 Este 0 -- -- 42
2019-07-30 10:00:00 23.9 4 Este 9 Sudeste 0 -- -- 51
2019-07-30 09:00:00 20.4 2 Nordeste 10 Nordeste 0 -- -- 60
2019-07-30 08:00:00 18.7 0 Calma 4 Norte 0 -- -- 80
2019-07-30 07:00:00 19 3 Norte 9 Noroeste 0 -- -- 59
2019-07-30 06:00:00 19.4 4 Noroeste 10 Norte 0 -- -- 57
2019-07-30 05:00:00 20.1 2 Norte 8 Norte 0 -- -- 78
2019-07-30 04:00:00 20.4 3 Noroeste 5 Noroeste 0 -- -- 78
2019-07-30 03:00:00 21 0 Calma 4 Sur 0 -- -- 79
2019-07-30 02:00:00 21.5 0 Calma 3 Sudeste 0 -- -- 78
2019-07-30 01:00:00 22.1 0 Calma 4 Noroeste 0 -- -- 71
2019-07-30 00:00:00 22.8 3 Norte 8 Sudoeste 0 -- -- 64
2019-07-29 23:00:00 23.4 4 Sudoeste 12 Sur 0 -- -- 58
2019-07-29 22:00:00 25.1 6 Sudoeste 19 Sudoeste 0 -- -- 54
2019-07-29 21:00:00 27.5 10 Sudoeste 19 Sudoeste 0 -- -- 46
2019-07-29 20:00:00 31.2 5 Nordeste 19 Sur 0 -- -- 33
2019-07-29 19:00:00 32.5 6 Sudeste 26 Sudoeste 0 -- -- 28
2019-07-29 18:00:00 32.6 15 Sudoeste 34 Sudoeste 0 -- -- 28
2019-07-29 17:00:00 32.8 13 Sudoeste 26 Sur 0 -- -- 31
2019-07-29 16:00:00 32.6 8 Sudoeste 18 Sudoeste 0 -- -- 34
2019-07-29 15:00:00 32.2 8 Norte 18 Noroeste 0 -- -- 30
2019-07-29 14:00:00 30.5 9 Noroeste 18 Norte 0 -- -- 35
2019-07-29 13:00:00 29.4 5 Sudeste 15 Sur 0 -- -- 50
2019-07-29 12:00:00 27.3 7 Sur 14 Sur 0 -- -- 58
2019-07-29 11:00:00 24.9 6 Sudoeste 17 Sur 0 -- -- 66
2019-07-29 10:00:00 22.7 9 Sur 15 Sur 0 -- -- 74
2019-07-29 09:00:00 20.6 6 Sur 12 Sur 0 -- -- 83
2019-07-29 08:00:00 18.7 5 Sur 12 Sur 0 -- -- 90
2019-07-29 07:00:00 18.4 4 Sur 13 Sur 0 -- -- 91
2019-07-29 06:00:00 18.5 7 Sur 16 Sur 0 -- -- 90
2019-07-29 05:00:00 19 3 Sur 7 Sur 0 -- -- 85
2019-07-29 04:00:00 19.2 0 Calma 9 Sudeste 0 -- -- 86
2019-07-29 03:00:00 19.1 5 Sur 11 Sur 0 -- -- 83
2019-07-29 02:00:00 19.3 5 Sudoeste 12 Sudoeste 0 -- -- 85
2019-07-29 01:00:00 19.6 4 Sudoeste 12 Sudoeste 0 -- -- 83
2019-07-29 00:00:00 20 5 Sudoeste 13 Sudoeste 0 -- -- 78
2019-07-28 23:00:00 20.6 7 Sudoeste 19 Oeste 0 -- -- 72
2019-07-28 22:00:00 21.7 9 Sudoeste 18 Sudoeste 0 -- -- 66
2019-07-28 21:00:00 23.6 8 Sudoeste 21 Sudoeste 0 -- -- 57
2019-07-28 20:00:00 25.7 10 Sudoeste 24 Sudoeste 0 -- -- 50
2019-07-28 19:00:00 27.2 9 Sudoeste 26 Sudoeste 0 -- -- 46
2019-07-28 18:00:00 28.2 10 Sudoeste 25 Sudoeste 0 -- -- 42
2019-07-28 17:00:00 28.5 10 Sudoeste 24 Sudoeste 0 -- -- 41
2019-07-28 16:00:00 28.7 8 Sudoeste 22 Sudoeste 0 -- -- 41
2019-07-28 15:00:00 29 7 Sur 20 Sur 0 -- -- 40
2019-07-28 14:00:00 28.2 4 Sudoeste 16 Sudoeste 0 -- -- 42
2019-07-28 13:00:00 27.2 5 Nordeste 14 Norte 0 -- -- 53
2019-07-28 12:00:00 25.6 6 Norte 14 Norte 0 -- -- 57
2019-07-28 11:00:00 23.8 4 Noroeste 10 Oeste 0 -- -- 64
2019-07-28 10:00:00 21.7 4 Norte 11 Norte 0 -- -- 73
2019-07-28 09:00:00 19.6 5 Noroeste 8 Noroeste 0 -- -- 82
2019-07-28 08:00:00 18.4 5 Oeste 8 Oeste 0 -- -- 89
2019-07-28 07:00:00 18.2 0 Calma 7 Sudoeste 0 -- -- 90
2019-07-28 06:00:00 18.9 3 Sudoeste 9 Sudoeste 0 -- -- 86
2019-07-28 05:00:00 19.7 3 Sudoeste 13 Sur 0 -- -- 83
2019-07-28 04:00:00 19.9 5 Sudoeste 12 Sudoeste 0 -- -- 84
2019-07-28 03:00:00 19.8 5 Sur 9 Sur 0 -- -- 87
2019-07-28 02:00:00 20 3 Sudoeste 12 Sur 0 -- -- 86
2019-07-28 01:00:00 20.7 5 Sudoeste 22 Sudoeste 0 -- -- 83
2019-07-28 00:00:00 21.4 6 Sudoeste 17 Sudoeste 0 -- -- 78
2019-07-27 23:00:00 21.9 5 Sudoeste 17 Sudoeste 0 -- -- 77
2019-07-26 12:00:00 26.7 9 Sudoeste 23 Sudoeste 0 -- -- 54
2019-07-26 11:00:00 24.7 7 Sudoeste 18 Sudoeste 0 -- -- 67
2019-07-26 10:00:00 23.3 6 Sur 16 Sudoeste 0 -- -- 78
2019-07-26 09:00:00 22.3 7 Sur 17 Sur 0 -- -- 83
2019-07-26 08:00:00 20.9 5 Sur 14 Sur 0 -- -- 86
2019-07-26 07:00:00 20.3 6 Sudoeste 16 Sudoeste 0 -- -- 86
2019-07-26 06:00:00 20.3 9 Sur 18 Sur 0 -- -- 86
2019-07-26 05:00:00 20.3 6 Sur 12 Sur 0 -- -- 87
2019-07-26 04:00:00 20.7 7 Sur 21 Sur 0 -- -- 86
2019-07-26 03:00:00 20.9 9 Sur 21 Sur 0 -- -- 87
2019-07-26 02:00:00 21.3 8 Sur 14 Sur 0 -- -- 83
2019-07-26 01:00:00 22 8 Sur 16 Sur 0 -- -- 80
2019-07-26 00:00:00 22.2 5 Sudoeste 11 Sudoeste 0 -- -- 82
2019-07-25 23:00:00 22.7 5 Sudoeste 15 Oeste 0 -- -- 79
2019-07-25 22:00:00 23.8 8 Sudoeste 16 Sudoeste 0 -- -- 73
2019-07-25 21:00:00 25.7 7 Sudoeste 26 Sudoeste 0 -- -- 62
2019-07-25 20:00:00 29.4 12 Sudoeste 28 Sur 0 -- -- 48
2019-07-25 19:00:00 31.1 11 Sudoeste 27 Sudoeste 0 -- -- 41
2019-07-25 18:00:00 31.4 10 Sudoeste 30 Sudoeste 0 -- -- 43
2019-07-25 17:00:00 31.5 13 Sudoeste 28 Sudoeste 0 -- -- 45
2019-07-25 16:00:00 32.3 13 Sudoeste 31 Noroeste 0 -- -- 45
2019-07-25 15:00:00 32.2 10 Noroeste 34 Sudoeste 0 -- -- 46
2019-07-25 14:00:00 33 6 Noroeste 23 Noroeste 0 -- -- 39
2019-07-25 13:00:00 31.5 7 Noroeste 17 Noroeste 0 -- -- 43
2019-07-25 12:00:00 29.3 8 Noroeste 17 Norte 0 -- -- 58
2019-07-25 11:00:00 27.4 3 Este 10 Norte 0 -- -- 65
2019-07-25 10:00:00 24.8 4 Este 6 Este 0 -- -- 76
2019-07-25 09:00:00 22.3 3 Este 7 Sudeste 0 -- -- 84
2019-07-25 08:00:00 21 0 Calma 3 Este 0 -- -- 91
2019-07-25 07:00:00 21.1 0 Calma 4 Nordeste 0 -- -- 90
2019-07-25 06:00:00 21.3 0 Calma 5 Sudeste 0 -- -- 87
2019-07-25 05:00:00 21.7 0 Calma 10 Este 0 -- -- 85
2019-07-25 04:00:00 22.2 0 Calma 6 Norte 0 -- -- 82
2019-07-25 03:00:00 22.9 0 Calma 9 Noroeste 0 -- -- 80
2019-07-25 02:00:00 23.5 4 Noroeste 16 Oeste 0 -- -- 77
2019-07-25 01:00:00 24.1 8 Noroeste 17 Noroeste 0 -- -- 70
2019-07-25 00:00:00 25 13 Oeste 19 Oeste 0 -- -- 63
2019-07-24 23:00:00 25.5 10 Oeste 19 Noroeste 0 -- -- 63
2019-07-24 22:00:00 26.1 12 Noroeste 23 Noroeste 0 -- -- 64
2019-07-24 21:00:00 29.6 12 Oeste 24 Sudoeste 0 -- -- 47
2019-07-24 20:00:00 32.9 12 Oeste 24 Sudoeste 0 -- -- 35
2019-07-24 19:00:00 35.2 5 Nordeste 14 Nordeste 0 -- -- 29
2019-07-24 18:00:00 35.7 9 Este 18 Este 0 -- -- 27
2019-07-24 17:00:00 36.9 8 Este 14 Este 0 -- -- 27
2019-07-24 16:00:00 36.7 6 Este 16 Sudeste 0 -- -- 25
2019-07-24 15:00:00 36.9 3 Este 14 Este 0 -- -- 28
2019-07-24 14:00:00 36 4 Este 12 Este 0 -- -- 27
2019-07-24 13:00:00 34.2 4 Sudoeste 12 Norte 0 -- -- 29
2019-07-24 12:00:00 32.5 5 Sur 13 Sur 0 -- -- 37
2019-07-24 11:00:00 29.9 4 Norte 8 Nordeste 0 -- -- 43
2019-07-24 10:00:00 26 4 Este 6 Este 0 -- -- 70
2019-07-24 09:00:00 23.6 2 Nordeste 7 Sudeste 0 -- -- 77
2019-07-24 08:00:00 22.2 3 Este 9 Nordeste 0 -- -- 84
2019-07-24 07:00:00 22 3 Nordeste 8 Este 0 -- -- 87
2019-07-24 06:00:00 22.4 3 Este 8 Sudeste 0 -- -- 90
2019-07-24 05:00:00 22.5 0 Calma 4 Norte 0 -- -- 90
2019-07-24 04:00:00 22.8 0 Calma 4 Norte 0 -- -- 87
2019-07-24 03:00:00 23.3 0 Calma 10 Noroeste 0 -- -- 84
2019-07-24 02:00:00 23.5 3 Noroeste 10 Noroeste 0 -- -- 83
2019-07-24 01:00:00 23.9 0 Calma 9 Oeste 0 -- -- 78
2019-07-24 00:00:00 24.6 4 Oeste 15 Noroeste 0 -- -- 74